Time;durP1;ratioP1;P1;durP2;ratioP2;P2;SDS_P1;SDS_P2;PMS_P1;PMS_P2;Temp;Humidity;BMP_temperature;BMP_pressure;BME280_temperature;BME280_humidity;BME280_pressure;Samples;Min_cycle;Max_cycle;Signal;HPM_P1;HPM_P2
2021/07/17 00:00:26;;;;;;;18.13;11.70;;;20.60;99.90;;;;;;5046781;28;20079;-65
2021/07/17 00:02:53;;;;;;;16.52;10.57;;;20.50;99.90;;;;;;5049271;28;20072;-65
2021/07/17 00:05:20;;;;;;;19.40;11.25;;;20.50;99.90;;;;;;5044425;28;20048;-65
2021/07/17 00:07:48;;;;;;;16.65;11.55;;;20.50;99.90;;;;;;5045777;28;20098;-65
2021/07/17 00:10:16;;;;;;;16.60;11.35;;;20.50;99.90;;;;;;5045775;28;20045;-65
2021/07/17 00:12:44;;;;;;;21.30;12.35;;;20.40;99.90;;;;;;5046933;28;20767;-65
2021/07/17 00:15:15;;;;;;;19.30;12.50;;;20.40;99.90;;;;;;5045169;28;20055;-65
2021/07/17 00:17:42;;;;;;;18.80;11.25;;;20.50;99.90;;;;;;5043561;28;20524;-65
2021/07/17 00:20:10;;;;;;;17.85;12.00;;;20.40;99.90;;;;;;5045737;28;20059;-65
2021/07/17 00:22:38;;;;;;;19.45;12.98;;;20.50;99.90;;;;;;5045483;28;20064;-64
2021/07/17 00:25:07;;;;;;;18.73;11.40;;;20.40;99.90;;;;;;5046750;28;20151;-65
2021/07/17 00:27:34;;;;;;;20.83;12.43;;;20.40;99.90;;;;;;5046308;28;20056;-67
2021/07/17 00:30:01;;;;;;;21.70;13.20;;;20.50;99.90;;;;;;5045369;28;20056;-65
2021/07/17 00:32:30;;;;;;;23.33;12.88;;;20.40;99.90;;;;;;5045553;28;20102;-65
2021/07/17 00:34:57;;;;;;;18.88;12.40;;;20.50;99.90;;;;;;5044389;28;20079;-64
2021/07/17 00:37:24;;;;;;;18.00;12.32;;;20.50;99.90;;;;;;5042685;28;20055;-64
2021/07/17 00:39:51;;;;;;;28.23;14.57;;;20.50;99.90;;;;;;5045559;28;20048;-64
2021/07/17 00:42:18;;;;;;;21.23;12.93;;;20.60;99.90;;;;;;5044030;28;20602;-64
2021/07/17 00:44:45;;;;;;;18.90;12.32;;;20.60;99.90;;;;;;5041577;28;20489;-64
2021/07/17 00:47:15;;;;;;;21.10;12.45;;;20.60;99.90;;;;;;5041490;28;20105;-64
2021/07/17 00:49:44;;;;;;;18.88;12.57;;;20.60;99.90;;;;;;5041672;28;20799;-64
2021/07/17 00:52:11;;;;;;;17.25;11.95;;;20.50;99.90;;;;;;5042295;28;20044;-64
2021/07/17 00:54:41;;;;;;;19.35;13.15;;;20.50;99.90;;;;;;5041902;28;20048;-64
2021/07/17 00:57:10;;;;;;;24.83;12.82;;;20.50;99.90;;;;;;5041543;28;20044;-64
2021/07/17 00:59:42;;;;;;;20.85;13.60;;;20.50;99.90;;;;;;5040347;28;20114;-64
2021/07/17 01:02:11;;;;;;;22.98;12.93;;;20.40;99.90;;;;;;5041455;28;20048;-65
2021/07/17 01:04:39;;;;;;;22.92;14.40;;;20.40;99.90;;;;;;5041292;28;20063;-64
2021/07/17 01:07:08;;;;;;;20.25;11.27;;;20.30;99.90;;;;;;5041952;28;20048;-65
2021/07/17 01:09:36;;;;;;;23.52;13.45;;;20.40;99.90;;;;;;5041101;28;20063;-65
2021/07/17 01:12:03;;;;;;;24.20;13.18;;;20.40;99.90;;;;;;5041868;28;20052;-65
2021/07/17 01:14:31;;;;;;;22.52;12.98;;;20.50;99.90;;;;;;5041290;28;20500;-65
2021/07/17 01:16:58;;;;;;;22.77;13.35;;;20.50;99.90;;;;;;5042560;28;20061;-65
2021/07/17 01:19:26;;;;;;;24.70;13.95;;;20.50;99.90;;;;;;5040245;28;20072;-64
2021/07/17 01:21:56;;;;;;;21.35;13.48;;;20.40;99.90;;;;;;5039757;28;20159;-65
2021/07/17 01:24:24;;;;;;;27.02;14.48;;;20.40;99.90;;;;;;5036261;28;20125;-64
2021/07/17 01:26:52;;;;;;;22.10;13.13;;;20.40;99.90;;;;;;5037064;28;20040;-64
2021/07/17 01:29:19;;;;;;;27.02;14.82;;;20.40;99.90;;;;;;5035611;28;20049;-65
2021/07/17 01:31:47;;;;;;;25.25;14.05;;;20.50;99.90;;;;;;5039902;28;20554;-65
2021/07/17 01:34:14;;;;;;;26.48;14.15;;;20.40;99.90;;;;;;5037794;28;20084;-65
2021/07/17 01:36:41;;;;;;;28.90;14.82;;;20.50;99.90;;;;;;5040128;28;20451;-64
2021/07/17 01:39:10;;;;;;;25.77;14.80;;;20.50;99.90;;;;;;5045121;28;20063;-64
2021/07/17 01:41:37;;;;;;;23.88;13.93;;;20.40;99.90;;;;;;5044663;28;20066;-64
2021/07/17 01:44:04;;;;;;;30.08;15.77;;;20.40;99.90;;;;;;5045590;28;20144;-64
2021/07/17 01:46:32;;;;;;;25.83;15.10;;;20.50;99.90;;;;;;5045982;28;20131;-64
2021/07/17 01:48:59;;;;;;;24.08;15.30;;;20.40;99.90;;;;;;5043579;28;20088;-64
2021/07/17 01:51:26;;;;;;;27.00;15.32;;;20.40;99.90;;;;;;5043343;28;20488;-65
2021/07/17 01:53:55;;;;;;;22.20;14.40;;;20.40;99.90;;;;;;5045226;28;20048;-64
2021/07/17 01:56:25;;;;;;;26.55;14.65;;;20.50;99.90;;;;;;5044943;28;20052;-65
2021/07/17 01:58:52;;;;;;;27.05;14.85;;;20.20;99.90;;;;;;5044187;28;20059;-65
2021/07/17 02:01:19;;;;;;;27.90;14.85;;;20.20;99.90;;;;;;5045240;28;20056;-65
2021/07/17 02:03:47;;;;;;;23.35;14.30;;;20.20;99.90;;;;;;5045855;28;20076;-65
2021/07/17 02:06:14;;;;;;;29.33;15.35;;;20.20;99.90;;;;;;5045780;28;20048;-65
2021/07/17 02:08:42;;;;;;;28.63;16.85;;;20.10;99.90;;;;;;5043452;28;20922;-65
2021/07/17 02:11:09;;;;;;;30.67;16.58;;;20.10;99.90;;;;;;5044836;28;20052;-65
2021/07/17 02:13:38;;;;;;;32.47;16.92;;;20.10;99.90;;;;;;5044800;28;20129;-65
2021/07/17 02:16:05;;;;;;;27.42;16.75;;;20.10;99.90;;;;;;5044074;28;20616;-65
2021/07/17 02:18:34;;;;;;;28.73;17.30;;;20.00;99.90;;;;;;5042992;28;20078;-66
2021/07/17 02:21:01;;;;;;;34.40;18.00;;;19.90;99.90;;;;;;5044254;28;20451;-66
2021/07/17 02:23:29;;;;;;;31.95;17.50;;;19.90;99.90;;;;;;5044012;28;20459;-65
2021/07/17 02:25:57;;;;;;;34.15;17.30;;;19.90;99.90;;;;;;5044917;28;20473;-65
2021/07/17 02:28:24;;;;;;;33.00;18.83;;;19.70;99.90;;;;;;5043429;28;20145;-65
2021/07/17 02:30:54;;;;;;;31.08;18.13;;;19.70;99.90;;;;;;5043563;28;20504;-66
2021/07/17 02:33:21;;;;;;;35.10;18.60;;;19.70;99.90;;;;;;5043375;28;20127;-65
2021/07/17 02:35:48;;;;;;;32.05;17.25;;;19.70;99.90;;;;;;5044353;28;20144;-65
2021/07/17 02:38:16;;;;;;;35.78;18.38;;;19.70;99.90;;;;;;5043369;28;20076;-65
2021/07/17 02:40:43;;;;;;;34.42;19.45;;;19.80;99.90;;;;;;5044750;28;20053;-65
2021/07/17 02:43:10;;;;;;;36.47;18.90;;;19.70;99.90;;;;;;5043608;28;20545;-66
2021/07/17 02:45:37;;;;;;;36.90;18.02;;;19.70;99.90;;;;;;5043718;28;20084;-65
2021/07/17 02:48:05;;;;;;;35.78;19.60;;;19.60;99.90;;;;;;5041910;28;20572;-65
2021/07/17 02:50:33;;;;;;;33.10;18.83;;;19.60;99.90;;;;;;5042645;28;20146;-66
2021/07/17 02:53:00;;;;;;;35.90;19.13;;;19.60;99.90;;;;;;5042647;28;20129;-65
2021/07/17 02:55:27;;;;;;;37.63;21.10;;;19.50;99.90;;;;;;5042587;28;20084;-66
2021/07/17 02:57:54;;;;;;;33.28;18.63;;;19.50;99.90;;;;;;5041798;28;20063;-66
2021/07/17 03:00:21;;;;;;;35.15;20.80;;;19.50;99.90;;;;;;5041289;28;20466;-66
2021/07/17 03:02:48;;;;;;;34.78;18.85;;;19.50;99.90;;;;;;5042833;28;20121;-65
2021/07/17 03:05:16;;;;;;;37.17;20.73;;;19.60;99.90;;;;;;5042594;28;20076;-65
2021/07/17 03:07:43;;;;;;;36.33;20.10;;;19.40;99.90;;;;;;5041468;28;20086;-65
2021/07/17 03:10:11;;;;;;;40.88;20.65;;;19.30;99.90;;;;;;5042620;28;20052;-66
2021/07/17 03:12:38;;;;;;;45.92;21.45;;;19.30;99.90;;;;;;5042311;28;20056;-66
2021/07/17 03:15:06;;;;;;;38.17;21.00;;;19.20;99.90;;;;;;5042238;28;20127;-66
2021/07/17 03:17:33;;;;;;;40.38;20.65;;;19.20;99.90;;;;;;5040695;28;20055;-65
2021/07/17 03:20:00;;;;;;;35.85;18.80;;;19.30;99.90;;;;;;5042009;28;20118;-64
2021/07/17 03:22:29;;;;;;;31.90;18.70;;;19.30;99.90;;;;;;5042357;28;20056;-65
2021/07/17 03:24:56;;;;;;;34.72;19.17;;;19.30;99.90;;;;;;5042462;28;20072;-65
2021/07/17 03:27:22;;;;;;;34.63;19.50;;;19.40;99.90;;;;;;5041381;28;20534;-65
2021/07/17 03:29:49;;;;;;;44.55;20.15;;;19.30;99.90;;;;;;5041091;28;20087;-66
2021/07/17 03:32:22;;;;;;;37.85;20.40;;;19.20;99.90;;;;;;5040940;28;20105;-65
2021/07/17 03:34:49;;;;;;;38.83;19.23;;;19.10;99.90;;;;;;5042058;28;20137;-65
2021/07/17 03:37:16;;;;;;;35.15;19.88;;;19.20;99.90;;;;;;5040949;28;20070;-65
2021/07/17 03:39:45;;;;;;;37.80;18.23;;;19.10;99.90;;;;;;5040941;28;20083;-65
2021/07/17 03:42:12;;;;;;;38.72;19.48;;;19.20;99.90;;;;;;5041111;28;20893;-64
2021/07/17 03:44:39;;;;;;;36.95;19.13;;;19.20;99.90;;;;;;5041856;28;20063;-65
2021/07/17 03:47:06;;;;;;;40.83;21.05;;;19.20;99.90;;;;;;5042057;28;20566;-65
2021/07/17 03:49:33;;;;;;;42.88;21.00;;;19.10;99.90;;;;;;5041903;28;20125;-65
2021/07/17 03:52:00;;;;;;;39.42;22.05;;;19.10;99.90;;;;;;5041519;28;20472;-65
2021/07/17 03:54:27;;;;;;;41.75;19.85;;;19.10;99.90;;;;;;5041984;28;20147;-65
2021/07/17 03:56:55;;;;;;;42.53;19.05;;;19.10;99.90;;;;;;5044347;28;20135;-65
2021/07/17 03:59:22;;;;;;;40.15;20.05;;;19.20;99.90;;;;;;5042503;28;20106;-65
2021/07/17 04:01:51;;;;;;;40.67;18.85;;;19.20;99.90;;;;;;5044363;28;20141;-64
2021/07/17 04:04:18;;;;;;;42.50;21.17;;;19.20;99.90;;;;;;5042632;28;20056;-65
2021/07/17 04:06:45;;;;;;;38.75;18.98;;;19.10;99.90;;;;;;5042723;28;20455;-65
2021/07/17 04:09:12;;;;;;;36.72;18.63;;;19.20;99.90;;;;;;5043315;28;20056;-65
2021/07/17 04:11:39;;;;;;;40.10;19.60;;;19.20;99.90;;;;;;5044073;28;20534;-65
2021/07/17 04:14:08;;;;;;;40.83;19.60;;;19.20;99.90;;;;;;5044534;28;20149;-65
2021/07/17 04:16:35;;;;;;;35.67;18.42;;;19.30;99.90;;;;;;5045058;28;20083;-65
2021/07/17 04:19:02;;;;;;;36.22;18.52;;;19.20;99.90;;;;;;5044554;28;20057;-65
2021/07/17 04:21:29;;;;;;;38.72;18.75;;;19.30;99.90;;;;;;5045505;28;20056;-65
2021/07/17 04:23:56;;;;;;;32.70;19.15;;;19.30;99.90;;;;;;5047566;28;20084;-65
2021/07/17 04:26:22;;;;;;;36.15;18.27;;;19.30;99.90;;;;;;5045723;28;20135;-65
2021/07/17 04:28:49;;;;;;;36.63;19.75;;;19.30;99.90;;;;;;5046502;28;20140;-65
2021/07/17 04:31:18;;;;;;;44.47;20.08;;;19.20;99.90;;;;;;5046295;28;20131;-65
2021/07/17 04:33:45;;;;;;;39.85;18.55;;;19.30;99.90;;;;;;5045654;28;20128;-65
2021/07/17 04:36:12;;;;;;;43.28;21.85;;;19.40;99.90;;;;;;5045122;28;20091;-65
2021/07/17 04:38:39;;;;;;;37.00;19.63;;;19.30;99.90;;;;;;5042706;28;20084;-65
2021/07/17 04:41:06;;;;;;;40.65;20.08;;;19.30;99.90;;;;;;5043784;28;20603;-65
2021/07/17 04:43:33;;;;;;;40.05;20.65;;;19.30;99.90;;;;;;5042715;28;20052;-65
2021/07/17 04:46:00;;;;;;;40.25;20.65;;;19.30;99.90;;;;;;5043924;28;20160;-65
2021/07/17 04:48:29;;;;;;;41.97;20.33;;;19.30;99.90;;;;;;5042099;28;20455;-65
2021/07/17 04:50:56;;;;;;;38.85;20.45;;;19.30;99.90;;;;;;5044055;28;20190;-65
2021/07/17 04:53:22;;;;;;;45.45;20.75;;;19.30;99.90;;;;;;5043323;28;20173;-65
2021/07/17 04:55:49;;;;;;;36.85;19.88;;;19.30;99.90;;;;;;5047633;28;20080;-65
2021/07/17 04:58:16;;;;;;;42.92;21.02;;;19.30;99.90;;;;;;5049151;28;20464;-65
2021/07/17 05:00:43;;;;;;;43.03;21.52;;;19.20;99.90;;;;;;5050336;28;20087;-65
2021/07/17 05:03:10;;;;;;;41.80;19.67;;;19.40;99.90;;;;;;5049732;28;20045;-65
2021/07/17 05:05:40;;;;;;;39.42;18.98;;;19.50;99.90;;;;;;5050538;28;21387;-66
2021/07/17 05:08:08;;;;;;;38.35;19.38;;;19.50;99.90;;;;;;5049181;28;20062;-65
2021/07/17 05:10:34;;;;;;;39.53;19.55;;;19.50;99.90;;;;;;5049643;28;20099;-65
2021/07/17 05:13:11;;;;;;;37.63;18.95;;;19.50;99.90;;;;;;5049502;28;20136;-65
2021/07/17 05:15:40;;;;;;;35.42;19.23;;;19.50;99.90;;;;;;5050840;28;20650;-65
2021/07/17 05:18:07;;;;;;;40.10;19.52;;;19.40;99.90;;;;;;5052161;28;20127;-65
2021/07/17 05:20:34;;;;;;;30.73;18.40;;;19.40;99.90;;;;;;5051779;28;20463;-65
2021/07/17 05:23:03;;;;;;;40.88;20.90;;;19.50;99.90;;;;;;5050568;28;20048;-65
2021/07/17 05:25:30;;;;;;;37.10;21.50;;;19.40;99.90;;;;;;5049697;28;20072;-65
2021/07/17 05:27:58;;;;;;;44.58;24.45;;;19.50;99.90;;;;;;5047356;28;20225;-66
2021/07/17 05:30:25;;;;;;;48.45;24.50;;;19.30;99.90;;;;;;5049133;28;20132;-64
2021/07/17 05:32:52;;;;;;;50.70;24.90;;;19.30;99.90;;;;;;5048036;28;20465;-65
2021/07/17 05:35:19;;;;;;;44.20;24.17;;;19.10;99.90;;;;;;5047680;28;20145;-65
2021/07/17 05:37:46;;;;;;;50.15;24.58;;;19.10;99.90;;;;;;5047240;28;20076;-65
2021/07/17 05:40:15;;;;;;;43.67;22.63;;;19.00;99.90;;;;;;5047889;28;20076;-64
2021/07/17 05:42:43;;;;;;;46.50;23.63;;;19.10;99.90;;;;;;5047451;28;20045;-65
2021/07/17 05:45:11;;;;;;;48.00;23.67;;;19.00;99.90;;;;;;5047831;28;20056;-65
2021/07/17 05:47:38;;;;;;;43.22;22.88;;;19.00;99.90;;;;;;5047486;28;20167;-65
2021/07/17 05:50:06;;;;;;;46.53;23.75;;;19.00;99.90;;;;;;5047980;28;20084;-65
2021/07/17 05:52:33;;;;;;;47.30;24.70;;;19.10;99.90;;;;;;5047099;28;20080;-64
2021/07/17 05:55:00;;;;;;;48.10;23.95;;;19.20;99.90;;;;;;5047284;28;20141;-65
2021/07/17 05:57:29;;;;;;;51.05;23.50;;;19.20;99.90;;;;;;5046353;28;20098;-66
2021/07/17 05:59:56;;;;;;;48.17;24.75;;;19.20;99.90;;;;;;5047613;28;20136;-65
2021/07/17 06:02:22;;;;;;;50.20;23.15;;;19.20;99.90;;;;;;5047356;28;20507;-66
2021/07/17 06:04:49;;;;;;;47.55;23.92;;;19.30;99.90;;;;;;5047905;28;20134;-65
2021/07/17 06:07:16;;;;;;;50.45;24.20;;;19.30;99.90;;;;;;5046710;28;20110;-64
2021/07/17 06:09:44;;;;;;;47.33;23.40;;;19.30;99.90;;;;;;5043507;28;20126;-64
2021/07/17 06:12:12;;;;;;;46.55;23.65;;;19.40;99.90;;;;;;5043115;28;20455;-65
2021/07/17 06:14:40;;;;;;;43.13;24.55;;;19.40;99.90;;;;;;5044468;28;20052;-65
2021/07/17 06:17:11;;;;;;;44.28;23.58;;;19.60;99.90;;;;;;5044168;28;20044;-64
2021/07/17 06:19:38;;;;;;;38.30;22.35;;;19.60;99.90;;;;;;5044134;28;20390;-65
2021/07/17 06:22:06;;;;;;;47.08;22.65;;;19.60;99.90;;;;;;5043691;28;20072;-65
2021/07/17 06:24:33;;;;;;;43.65;22.30;;;19.60;99.90;;;;;;5043510;28;20185;-64
2021/07/17 06:27:00;;;;;;;44.85;22.50;;;19.60;99.90;;;;;;5044413;28;20232;-64
2021/07/17 06:29:27;;;;;;;41.92;21.65;;;19.60;99.90;;;;;;5042779;28;20048;-64
2021/07/17 06:31:55;;;;;;;47.25;22.85;;;19.70;99.90;;;;;;5042801;28;20153;-65
2021/07/17 06:34:23;;;;;;;38.63;20.70;;;19.60;99.90;;;;;;5042487;28;20060;-64
2021/07/17 06:36:50;;;;;;;40.75;21.15;;;19.70;99.90;;;;;;5043222;28;20505;-64
2021/07/17 06:39:17;;;;;;;44.65;19.83;;;19.60;99.90;;;;;;5042221;28;20098;-64
2021/07/17 06:41:44;;;;;;;38.38;19.65;;;19.70;99.90;;;;;;5041926;28;20550;-64
2021/07/17 06:44:11;;;;;;;40.60;20.50;;;19.70;99.90;;;;;;5042355;28;20451;-65
2021/07/17 06:46:38;;;;;;;42.10;21.88;;;19.70;99.90;;;;;;5042179;28;20052;-65
2021/07/17 06:49:07;;;;;;;41.10;19.67;;;19.80;99.90;;;;;;5041869;28;20128;-66
2021/07/17 06:51:35;;;;;;;45.05;20.88;;;19.70;99.90;;;;;;5042652;28;20059;-65
2021/07/17 06:54:02;;;;;;;36.38;20.25;;;19.70;99.90;;;;;;5043807;28;20057;-65
2021/07/17 06:56:29;;;;;;;39.25;20.63;;;19.80;99.90;;;;;;5043111;28;20115;-65
2021/07/17 06:58:56;;;;;;;39.80;19.75;;;19.70;99.90;;;;;;5042888;28;20052;-65
2021/07/17 07:01:24;;;;;;;36.45;19.70;;;19.70;99.90;;;;;;5043540;28;20055;-65
2021/07/17 07:03:51;;;;;;;31.80;19.58;;;19.70;99.90;;;;;;5043129;28;20528;-65
2021/07/17 07:06:19;;;;;;;40.00;21.38;;;19.70;99.90;;;;;;5043933;28;20128;-65
2021/07/17 07:08:46;;;;;;;41.03;20.85;;;19.70;99.90;;;;;;5041630;28;20045;-65
2021/07/17 07:11:13;;;;;;;35.38;18.98;;;19.60;99.90;;;;;;5045118;28;20098;-65
2021/07/17 07:13:40;;;;;;;35.63;20.20;;;19.60;99.90;;;;;;5042590;28;20080;-66
2021/07/17 07:16:07;;;;;;;33.65;18.55;;;19.70;99.90;;;;;;5043555;28;20048;-65
2021/07/17 07:18:34;;;;;;;34.38;18.55;;;19.60;99.90;;;;;;5044973;28;20130;-66
2021/07/17 07:21:01;;;;;;;38.67;19.80;;;19.70;99.90;;;;;;5046641;28;20084;-65
2021/07/17 07:23:29;;;;;;;37.75;18.55;;;19.60;99.90;;;;;;5045846;28;20156;-65
2021/07/17 07:25:56;;;;;;;31.98;18.85;;;19.60;99.90;;;;;;5047698;28;20087;-65
2021/07/17 07:28:23;;;;;;;34.20;18.88;;;19.50;99.90;;;;;;5044608;28;21474;-65
2021/07/17 07:30:50;;;;;;;32.70;18.85;;;19.50;99.90;;;;;;5046277;28;20080;-65
2021/07/17 07:33:17;;;;;;;33.78;19.67;;;19.60;99.90;;;;;;5046398;28;20163;-66
2021/07/17 07:35:44;;;;;;;29.73;18.05;;;19.70;99.90;;;;;;5044202;28;20594;-65
2021/07/17 07:38:11;;;;;;;35.15;17.85;;;19.60;99.90;;;;;;5041007;28;20125;-65
2021/07/17 07:40:40;;;;;;;35.47;18.23;;;19.80;99.90;;;;;;5044084;28;20084;-65
2021/07/17 07:43:07;;;;;;;30.40;17.85;;;19.90;99.90;;;;;;5040365;28;20066;-65
2021/07/17 07:45:34;;;;;;;28.50;15.57;;;20.00;99.90;;;;;;5038586;28;20045;-65
2021/07/17 07:48:01;;;;;;;27.40;15.60;;;20.10;99.90;;;;;;5038978;28;20477;-65
2021/07/17 07:50:28;;;;;;;28.38;16.55;;;20.30;99.90;;;;;;5041790;28;20044;-65
2021/07/17 07:52:54;;;;;;;22.73;16.08;;;20.30;99.90;;;;;;5037635;28;20448;-65
2021/07/17 07:55:22;;;;;;;31.52;17.58;;;20.50;99.90;;;;;;5037411;28;20110;-65
2021/07/17 07:57:50;;;;;;;25.73;15.98;;;20.60;99.90;;;;;;5037209;28;20517;-65
2021/07/17 08:00:18;;;;;;;26.85;16.05;;;20.40;99.90;;;;;;5037669;28;20152;-65
2021/07/17 08:02:45;;;;;;;33.45;16.13;;;20.60;99.90;;;;;;5037820;28;20137;-65
2021/07/17 08:05:12;;;;;;;26.70;15.45;;;20.70;99.90;;;;;;5036848;28;20087;-65
2021/07/17 08:07:39;;;;;;;23.75;14.25;;;20.70;99.90;;;;;;5036567;28;20061;-65
2021/07/17 08:10:08;;;;;;;19.45;13.43;;;20.90;99.90;;;;;;5038167;28;20052;-65
2021/07/17 08:12:35;;;;;;;21.77;14.43;;;21.20;99.90;;;;;;5037192;28;20090;-64
2021/07/17 08:15:03;;;;;;;21.58;13.25;;;21.10;99.90;;;;;;5037804;28;20048;-65
2021/07/17 08:17:31;;;;;;;26.60;14.60;;;21.20;99.90;;;;;;5037184;28;20128;-64
2021/07/17 08:19:58;;;;;;;22.20;13.05;;;21.40;99.90;;;;;;5037943;28;20463;-64
2021/07/17 08:22:25;;;;;;;21.27;12.90;;;21.50;99.90;;;;;;5038288;28;20129;-64
2021/07/17 08:24:52;;;;;;;18.75;12.23;;;21.30;99.90;;;;;;5045571;28;20048;-64
2021/07/17 08:27:19;;;;;;;25.98;12.45;;;21.50;99.90;;;;;;5043849;28;20964;-64
2021/07/17 08:29:45;;;;;;;20.13;11.75;;;21.50;99.90;;;;;;5045436;28;20131;-65
2021/07/17 08:32:14;;;;;;;18.88;11.38;;;21.60;99.90;;;;;;5044737;28;21081;-64
2021/07/17 08:34:41;;;;;;;18.02;11.45;;;21.70;99.90;;;;;;5045668;28;20147;-65
2021/07/17 08:37:08;;;;;;;17.65;11.13;;;21.70;99.90;;;;;;5034860;28;20131;-65
2021/07/17 08:39:35;;;;;;;18.75;11.00;;;21.70;99.90;;;;;;5031408;28;20497;-65
2021/07/17 08:42:04;;;;;;;17.83;11.13;;;21.70;99.90;;;;;;5032036;28;20487;-65
2021/07/17 08:44:34;;;;;;;17.13;11.38;;;21.80;99.90;;;;;;5030248;28;20090;-65
2021/07/17 08:47:03;;;;;;;17.10;10.75;;;21.90;99.90;;;;;;5031777;28;20182;-65
2021/07/17 08:49:33;;;;;;;19.90;11.48;;;21.90;99.90;;;;;;5030651;28;20048;-65
2021/07/17 08:52:02;;;;;;;18.27;10.05;;;22.00;99.90;;;;;;5031904;28;20098;-65
2021/07/17 08:54:31;;;;;;;15.35;9.98;;;21.90;99.90;;;;;;5032132;28;20060;-65
2021/07/17 08:56:58;;;;;;;20.40;10.55;;;21.80;99.90;;;;;;5032239;28;20886;-65
2021/07/17 08:59:25;;;;;;;22.65;10.90;;;21.70;99.90;;;;;;5029526;28;20496;-65
2021/07/17 09:01:52;;;;;;;19.35;11.23;;;21.50;99.90;;;;;;5031210;28;20049;-65
2021/07/17 09:04:26;;;;;;;14.13;10.38;;;21.50;99.90;;;;;;5031282;28;20149;-65
2021/07/17 09:06:55;;;;;;;15.95;10.45;;;21.70;99.90;;;;;;5030496;28;20049;-65
2021/07/17 09:09:31;;;;;;;13.38;8.55;;;21.60;99.90;;;;;;5030561;28;20044;-65
2021/07/17 09:11:59;;;;;;;13.32;7.97;;;21.80;99.90;;;;;;5031919;28;20052;-65
2021/07/17 09:14:37;;;;;;;13.90;7.93;;;22.10;99.90;;;;;;5032809;28;20143;-65
2021/07/17 09:17:05;;;;;;;16.27;8.68;;;22.40;99.90;;;;;;5039164;28;20057;-66
2021/07/17 09:19:33;;;;;;;13.93;7.38;;;22.70;99.90;;;;;;5039583;28;20075;-65
2021/07/17 09:22:02;;;;;;;13.57;7.80;;;22.80;99.90;;;;;;5038153;28;20135;-65
2021/07/17 09:24:30;;;;;;;11.75;7.10;;;23.20;99.90;;;;;;5038927;28;20083;-65
2021/07/17 09:27:00;;;;;;;11.43;6.78;;;23.60;99.90;;;;;;5039661;28;20049;-65
2021/07/17 09:29:37;;;;;;;16.15;7.50;;;23.80;99.90;;;;;;5038067;28;20044;-66
2021/07/17 09:32:05;;;;;;;13.15;7.25;;;24.10;99.90;;;;;;5035585;28;20059;-65
2021/07/17 09:34:33;;;;;;;14.32;6.75;;;24.20;99.90;;;;;;5042932;28;20126;-65
2021/07/17 09:37:04;;;;;;;13.32;7.78;;;24.20;99.90;;;;;;5043914;28;20144;-66
2021/07/17 09:39:34;;;;;;;11.65;7.10;;;24.20;99.90;;;;;;5040032;28;20052;-66
2021/07/17 09:42:03;;;;;;;11.65;7.07;;;24.20;99.90;;;;;;5046122;28;20052;-65
2021/07/17 09:44:31;;;;;;;11.75;7.40;;;24.20;99.90;;;;;;5045832;28;20566;-65
2021/07/17 09:46:59;;;;;;;11.73;7.18;;;24.00;99.90;;;;;;5041409;28;20072;-65
2021/07/17 09:49:28;;;;;;;12.82;7.80;;;24.00;99.90;;;;;;5039739;28;20051;-65
2021/07/17 09:52:10;;;;;;;14.63;7.95;;;24.10;99.90;;;;;;5042754;28;20045;-65
2021/07/17 09:54:38;;;;;;;13.50;8.65;;;24.00;99.90;;;;;;5048436;28;20131;-64
2021/07/17 09:57:05;;;;;;;16.25;8.63;;;24.00;99.90;;;;;;5051363;28;20076;-65
2021/07/17 09:59:33;;;;;;;17.17;8.93;;;24.00;99.90;;;;;;5049389;28;20059;-66
2021/07/17 10:02:00;;;;;;;15.30;9.40;;;23.90;99.90;;;;;;5051584;28;20783;-66
2021/07/17 10:04:27;;;;;;;14.45;8.75;;;23.80;99.90;;;;;;5051405;28;20301;-65
2021/07/17 10:06:58;;;;;;;16.95;8.75;;;23.60;99.90;;;;;;5051486;28;20056;-65
2021/07/17 10:09:29;;;;;;;15.52;8.57;;;23.60;99.90;;;;;;5050199;28;20467;-65
2021/07/17 10:12:00;;;;;;;14.45;8.52;;;23.50;99.90;;;;;;5050485;28;20053;-65
2021/07/17 10:14:29;;;;;;;14.68;9.02;;;23.60;99.90;;;;;;5049881;28;21349;-65
2021/07/17 10:16:58;;;;;;;19.55;9.48;;;23.60;99.90;;;;;;5050645;28;20056;-65
2021/07/17 10:19:27;;;;;;;17.88;8.70;;;23.60;99.90;;;;;;5049916;28;20507;-65
2021/07/17 10:21:55;;;;;;;15.00;8.32;;;23.70;99.90;;;;;;5049043;28;20049;-65
2021/07/17 10:24:23;;;;;;;13.88;8.43;;;23.60;99.90;;;;;;5050362;28;20059;-65
2021/07/17 10:26:53;;;;;;;13.38;7.95;;;23.70;99.90;;;;;;5050552;28;20056;-65
2021/07/17 10:29:22;;;;;;;15.77;8.55;;;23.80;99.90;;;;;;5049995;28;20053;-66
2021/07/17 10:31:51;;;;;;;13.73;8.77;;;23.80;99.90;;;;;;5048638;28;20690;-65
2021/07/17 10:34:19;;;;;;;17.13;8.77;;;24.10;99.90;;;;;;5047453;28;20133;-65
2021/07/17 10:36:52;;;;;;;13.13;8.65;;;24.40;99.90;;;;;;5046868;28;20083;-65
2021/07/17 10:39:24;;;;;;;15.32;7.93;;;24.50;99.90;;;;;;5043790;28;20777;-65
2021/07/17 10:41:53;;;;;;;14.30;8.25;;;24.50;99.90;;;;;;5046940;28;20041;-62
2021/07/17 10:44:42;;;;;;;17.80;9.40;;;24.40;99.90;;;;;;5045690;28;20079;-62
2021/07/17 10:47:13;;;;;;;13.35;8.55;;;24.50;99.90;;;;;;5049721;28;20080;-71
2021/07/17 10:50:01;;;;;;;15.55;8.32;;;24.50;99.90;;;;;;5049722;28;20052;-69
2021/07/17 10:52:38;;;;;;;18.00;9.13;;;24.50;99.90;;;;;;5045639;28;20131;-70
2021/07/17 10:55:28;;;;;;;17.58;9.07;;;24.80;99.90;;;;;;5045634;28;20044;-65
2021/07/17 10:58:01;;;;;;;13.52;8.57;;;25.10;99.90;;;;;;5045799;28;20142;-69
2021/07/17 11:00:47;;;;;;;13.98;7.97;;;25.20;99.90;;;;;;5045107;28;20049;-64
2021/07/17 11:03:16;;;;;;;16.92;8.38;;;25.60;99.90;;;;;;5042747;28;20056;-63
2021/07/17 11:05:43;;;;;;;15.32;8.20;;;25.40;99.90;;;;;;5043329;28;20557;-64
2021/07/17 11:08:32;;;;;;;15.00;8.63;;;25.40;99.90;;;;;;5038022;28;20227;-63
2021/07/17 11:10:59;;;;;;;13.77;8.52;;;25.50;99.90;;;;;;5042629;28;20059;-63
2021/07/17 11:13:35;;;;;;;16.70;9.23;;;25.30;99.90;;;;;;5043686;28;20132;-66
2021/07/17 11:16:03;;;;;;;16.20;8.90;;;25.10;99.90;;;;;;5042822;28;20537;-66
2021/07/17 11:18:41;;;;;;;15.90;8.60;;;25.00;99.90;;;;;;5042393;28;20056;-69
2021/07/17 11:21:11;;;;;;;14.73;9.20;;;25.20;99.90;;;;;;5045614;28;20064;-71
2021/07/17 11:23:40;;;;;;;17.60;8.68;;;25.30;99.90;;;;;;5045299;28;20064;-72
2021/07/17 11:26:09;;;;;;;16.48;9.80;;;25.20;99.90;;;;;;5046587;28;20060;-68
2021/07/17 11:29:04;;;;;;;14.88;9.13;;;25.00;99.90;;;;;;5044556;28;20048;-63
2021/07/17 11:31:53;;;;;;;15.45;8.90;;;25.40;99.90;;;;;;5042933;28;20048;-66
2021/07/17 11:34:42;;;;;;;17.40;9.23;;;25.90;99.90;;;;;;5045624;28;20135;-71
2021/07/17 11:37:22;;;;;;;17.63;8.45;;;26.00;99.90;;;;;;5050946;28;20056;-64
2021/07/17 11:39:51;;;;;;;14.20;8.82;;;26.40;99.90;;;;;;5047319;28;20048;-64
2021/07/17 11:42:20;;;;;;;16.58;8.43;;;26.90;99.90;;;;;;5041831;28;20126;-63
2021/07/17 11:44:51;;;;;;;15.90;8.27;;;27.30;99.90;;;;;;5044969;28;20137;-64
2021/07/17 11:47:19;;;;;;;15.55;8.60;;;27.40;99.90;;;;;;5047549;28;20092;-63
2021/07/17 11:49:48;;;;;;;18.20;9.10;;;27.30;99.90;;;;;;5046324;28;20482;-64
2021/07/17 11:52:18;;;;;;;17.10;9.93;;;27.00;99.90;;;;;;5047475;28;20140;-64
2021/07/17 11:54:51;;;;;;;16.63;8.95;;;26.90;99.90;;;;;;5047995;28;20132;-64
2021/07/17 11:57:19;;;;;;;16.40;8.65;;;26.90;99.90;;;;;;5039107;28;20074;-63
2021/07/17 11:59:56;;;;;;;14.60;8.93;;;27.10;99.90;;;;;;5033079;28;20071;-63
2021/07/17 12:02:24;;;;;;;17.08;9.55;;;27.00;99.90;;;;;;5033322;28;20052;-64
2021/07/17 12:05:08;;;;;;;16.23;9.35;;;26.80;99.90;;;;;;5041318;28;20103;-64
2021/07/17 12:07:37;;;;;;;14.65;9.25;;;26.50;99.90;;;;;;5051666;28;20048;-63
2021/07/17 12:10:06;;;;;;;13.98;9.63;;;26.30;99.90;;;;;;5042549;28;20263;-63
2021/07/17 12:12:35;;;;;;;16.55;9.48;;;26.20;99.90;;;;;;5042149;28;20059;-64
2021/07/17 12:15:14;;;;;;;15.23;8.90;;;26.30;99.90;;;;;;5041271;28;20121;-63
2021/07/17 12:17:51;;;;;;;17.70;10.10;;;26.30;99.90;;;;;;5040787;28;20527;-63
2021/07/17 12:20:21;;;;;;;17.83;9.15;;;26.30;99.90;;;;;;5046472;28;20048;-64
2021/07/17 12:22:57;;;;;;;19.75;10.15;;;26.40;99.90;;;;;;5047268;28;20525;-64
2021/07/17 12:25:26;;;;;;;14.52;9.98;;;26.20;99.90;;;;;;5046776;28;20136;-64
2021/07/17 12:28:03;;;;;;;18.50;10.45;;;26.40;99.90;;;;;;5046600;28;20135;-64
2021/07/17 12:30:33;;;;;;;18.23;10.85;;;25.90;99.90;;;;;;5045736;28;20131;-63
2021/07/17 12:33:21;;;;;;;17.48;10.35;;;25.90;99.90;;;;;;5043368;28;20856;-63
2021/07/17 12:35:50;;;;;;;24.70;12.07;;;25.80;99.90;;;;;;5046545;28;20076;-63